Terminal Aerodrome Forecast
Issued by NWS

Home | Current Version | Previous Version | Graphics & Text | Print | Product List | Glossary On
Versions: 1 2 3 4 5 6 7 8 9 10 11 12 13 14 15 16 17 18 19 20 21 22 23
000
FTUS43 KABR 160500
TAFMBG
TAF
KMBG 160522Z 1606/1706 08025G33KT P6SM SCT060 OVC100
     FM160800 06025G33KT P6SM VCSH BKN050 OVC080
     FM161000 05024G30KT 4SM -RASN BKN025 OVC050
     FM161200 03020G28KT 1SM -SN BLSN OVC025
     FM161600 02015G23KT P6SM OVC030
     FM170000 05011KT P6SM BKN035 OVC100=

USA.gov is the U.S. government's official web portal to all federal, state and local government web resources and services.